Time;durP1;ratioP1;P1;durP2;ratioP2;P2;SDS_P1;SDS_P2;PMS_P1;PMS_P2;Temp;Humidity;BMP_temperature;BMP_pressure;BME280_temperature;BME280_humidity;BME280_pressure;Samples;Min_cycle;Max_cycle;Signal;HPM_P1;HPM_P2
2022/12/07 00:00:47;;;;;;;;;;;;;;;;;;10462744;28;20432;-62
2022/12/07 00:05:49;;;;;;;;;;;;;;;;;;10494951;28;20383;-63
2022/12/07 00:10:51;;;;;;;;;;;;;;;;;;10503659;28;19924;-63
2022/12/07 00:15:53;;;;;;;;;;;;;;;;;;10484489;28;19931;-62
2022/12/07 00:20:55;;;;;;;;;;;;;;;;;;10503350;28;19924;-63
2022/12/07 00:25:57;;;;;;;;;;;;;;;;;;10503027;28;19998;-63
2022/12/07 00:30:59;;;;;;;;;;;;;;;;;;10462862;28;19951;-63
2022/12/07 00:36:01;;;;;;;;;;;;;;;;;;10444521;28;19978;-63
2022/12/07 00:41:03;;;;;;;;;;;;;;;;;;10461098;28;19967;-63
2022/12/07 00:46:05;;;;;;;;;;;;;;;;;;10468927;28;19971;-62
2022/12/07 00:51:07;;;;;;;;;;;;;;;;;;10502114;28;19936;-62
2022/12/07 00:56:09;;;;;;;;;;;;;;;;;;10463681;28;19929;-62
2022/12/07 01:01:11;;;;;;;;;;;;;;;;;;10499697;28;19970;-63
2022/12/07 01:06:14;;;;;;;;;;;;;;;;;;10501416;28;20276;-62
2022/12/07 01:11:16;;;;;;;;;;;;;;;;;;10499447;28;19932;-62
2022/12/07 01:16:18;;;;;;;;;;;;;;;;;;10500555;28;19928;-62
2022/12/07 01:21:23;;;;;;;;;;;;;;;;;;10500432;28;19967;-62
2022/12/07 01:26:25;;;;;;;;;;;;;;;;;;10496813;28;19962;-62
2022/12/07 01:31:27;;;;;;;;;;;;;;;;;;10459164;28;20291;-62
2022/12/07 01:36:29;;;;;;;;;;;;;;;;;;10459585;28;19979;-63
2022/12/07 01:41:31;;;;;;;;;;;;;;;;;;10462568;28;19924;-62
2022/12/07 01:46:33;;;;;;;;;;;;;;;;;;10500495;28;19924;-63
2022/12/07 01:51:35;;;;;;;;;;;;;;;;;;10498648;28;19935;-62
2022/12/07 01:56:37;;;;;;;;;;;;;;;;;;10497082;28;20388;-62
2022/12/07 02:01:39;;;;;;;;;;;;;;;;;;10498749;28;19924;-63
2022/12/07 02:06:41;;;;;;;;;;;;;;;;;;10499703;28;19935;-62
2022/12/07 02:11:43;;;;;;;;;;;;;;;;;;10499640;28;19925;-63
2022/12/07 02:16:45;;;;;;;;;;;;;;;;;;10497698;28;20379;-62
2022/12/07 02:21:47;;;;;;;;;;;;;;;;;;10499277;28;19928;-62
2022/12/07 02:26:49;;;;;;;;;;;;;;;;;;10497357;28;19924;-62
2022/12/07 02:31:52;;;;;;;;;;;;;;;;;;10499148;28;19978;-62
2022/12/07 02:36:54;;;;;;;;;;;;;;;;;;10498412;28;20268;-62
2022/12/07 02:41:56;;;;;;;;;;;;;;;;;;10496959;28;19924;-63
2022/12/07 02:46:58;;;;;;;;;;;;;;;;;;10498113;28;20433;-62
2022/12/07 02:52:00;;;;;;;;;;;;;;;;;;10448490;28;19970;-62
2022/12/07 02:57:02;;;;;;;;;;;;;;;;;;10463461;28;19924;-62
2022/12/07 03:02:04;;;;;;;;;;;;;;;;;;10497907;28;20313;-63
2022/12/07 03:07:06;;;;;;;;;;;;;;;;;;10497718;28;20287;-63
2022/12/07 03:12:08;;;;;;;;;;;;;;;;;;10504356;28;20341;-62
2022/12/07 03:17:10;;;;;;;;;;;;;;;;;;10505826;28;19925;-63
2022/12/07 03:22:12;;;;;;;;;;;;;;;;;;10506244;28;19924;-62
2022/12/07 03:27:14;;;;;;;;;;;;;;;;;;10503425;28;19924;-62
2022/12/07 03:32:16;;;;;;;;;;;;;;;;;;10505847;28;19925;-62
2022/12/07 03:37:18;;;;;;;;;;;;;;;;;;10505651;28;19929;-63
2022/12/07 03:42:20;;;;;;;;;;;;;;;;;;10502896;28;20379;-63
2022/12/07 03:47:22;;;;;;;;;;;;;;;;;;10505158;28;19924;-62
2022/12/07 03:52:25;;;;;;;;;;;;;;;;;;10504321;28;19925;-62
2022/12/07 03:57:27;;;;;;;;;;;;;;;;;;10501733;28;19950;-62
2022/12/07 04:02:29;;;;;;;;;;;;;;;;;;10504104;28;19929;-62
2022/12/07 04:07:31;;;;;;;;;;;;;;;;;;10503802;28;20373;-62
2022/12/07 04:12:33;;;;;;;;;;;;;;;;;;10503112;28;19924;-62
2022/12/07 04:17:35;;;;;;;;;;;;;;;;;;10504113;28;19974;-62
2022/12/07 04:22:37;;;;;;;;;;;;;;;;;;10502923;28;19925;-62
2022/12/07 04:27:39;;;;;;;;;;;;;;;;;;10501542;28;19950;-62
2022/12/07 04:32:41;;;;;;;;;;;;;;;;;;10502923;28;20318;-62
2022/12/07 04:37:43;;;;;;;;;;;;;;;;;;10503294;28;19973;-63
2022/12/07 04:42:45;;;;;;;;;;;;;;;;;;10500646;28;19931;-62
2022/12/07 04:47:47;;;;;;;;;;;;;;;;;;10499971;28;19932;-63
2022/12/07 04:52:49;;;;;;;;;;;;;;;;;;10502756;28;19982;-63
2022/12/07 04:57:51;;;;;;;;;;;;;;;;;;10501275;28;19924;-63
2022/12/07 05:02:53;;;;;;;;;;;;;;;;;;10500981;28;19924;-62
2022/12/07 05:07:55;;;;;;;;;;;;;;;;;;10502000;28;19924;-62
2022/12/07 05:12:57;;;;;;;;;;;;;;;;;;10501898;28;19971;-63
2022/12/07 05:17:59;;;;;;;;;;;;;;;;;;10499733;28;19935;-62
2022/12/07 05:23:01;;;;;;;;;;;;;;;;;;10500807;28;20342;-62
2022/12/07 05:28:04;;;;;;;;;;;;;;;;;;10472230;28;19925;-62
2022/12/07 05:33:06;;;;;;;;;;;;;;;;;;10458592;28;19979;-62
2022/12/07 05:38:08;;;;;;;;;;;;;;;;;;10458020;28;19925;-62
2022/12/07 05:43:10;;;;;;;;;;;;;;;;;;10458755;28;19925;-62
2022/12/07 05:48:12;;;;;;;;;;;;;;;;;;10458903;28;19975;-62
2022/12/07 05:53:14;;;;;;;;;;;;;;;;;;10487242;28;19978;-62
2022/12/07 06:03:41;;;;;;;;;;;;;;;;;;10499217;28;19928;-62
2022/12/07 06:08:43;;;;;;;;;;;;;;;;;;10499115;28;19970;-63
2022/12/07 06:13:45;;;;;;;;;;;;;;;;;;10498373;28;19928;-62
2022/12/07 06:18:48;;;;;;;;;;;;;;;;;;10497034;28;19947;-62
2022/12/07 06:23:50;;;;;;;;;;;;;;;;;;10499365;28;19974;-62
2022/12/07 06:28:52;;;;;;;;;;;;;;;;;;10499170;28;19924;-63
2022/12/07 06:33:54;;;;;;;;;;;;;;;;;;10494579;28;19931;-62
2022/12/07 06:38:56;;;;;;;;;;;;;;;;;;10497363;28;20372;-62
2022/12/07 06:43:58;;;;;;;;;;;;;;;;;;10498162;28;19924;-62
2022/12/07 06:49:00;;;;;;;;;;;;;;;;;;10459378;28;19929;-62
2022/12/07 06:54:03;;;;;;;;;;;;;;;;;;10456660;28;20333;-63
2022/12/07 06:59:06;;;;;;;;;;;;;;;;;;10438964;28;19924;-62
2022/12/07 07:04:08;;;;;;;;;;;;;;;;;;10496188;28;19948;-63
2022/12/07 07:09:10;;;;;;;;;;;;;;;;;;10495719;28;20334;-63
2022/12/07 07:14:12;;;;;;;;;;;;;;;;;;10498322;28;20011;-63
2022/12/07 07:19:14;;;;;;;;;;;;;;;;;;10456753;28;20306;-63
2022/12/07 07:24:16;;;;;;;;;;;;;;;;;;10457668;28;19970;-62
2022/12/07 07:29:18;;;;;;;;;;;;;;;;;;10472015;28;19978;-62
2022/12/07 07:34:20;;;;;;;;;;;;;;;;;;10456556;28;19975;-62
2022/12/07 07:39:22;;;;;;;;;;;;;;;;;;10455819;28;19974;-63
2022/12/07 07:44:24;;;;;;;;;;;;;;;;;;10452488;28;19978;-63
2022/12/07 07:49:31;;;;;;;;;;;;;;;;;;10455163;28;19980;-63
2022/12/07 07:54:33;;;;;;;;;;;;;;;;;;10457779;28;19925;-63
2022/12/07 07:59:35;;;;;;;;;;;;;;;;;;10462855;28;19929;-64
2022/12/07 08:04:37;;;;;;;;;;;;;;;;;;10462823;28;19925;-63
2022/12/07 08:09:39;;;;;;;;;;;;;;;;;;10462421;28;19968;-63
2022/12/07 08:14:41;;;;;;;;;;;;;;;;;;10462284;28;20337;-63
2022/12/07 08:19:43;;;;;;;;;;;;;;;;;;10462267;28;19928;-63
2022/12/07 08:24:45;;;;;;;;;;;;;;;;;;10462577;28;19932;-63
2022/12/07 08:29:47;;;;;;;;;;;;;;;;;;10462247;28;19925;-63
2022/12/07 08:34:49;;;;;;;;;;;;;;;;;;10460899;28;20007;-63
2022/12/07 08:39:51;;;;;;;;;;;;;;;;;;10455126;28;19925;-63
2022/12/07 08:44:53;;;;;;;;;;;;;;;;;;10461030;28;20287;-63
2022/12/07 08:49:55;;;;;;;;;;;;;;;;;;10460920;28;19925;-63
2022/12/07 08:54:57;;;;;;;;;;;;;;;;;;10461255;28;19971;-63
2022/12/07 08:59:59;;;;;;;;;;;;;;;;;;10460471;28;19929;-63
2022/12/07 09:05:02;;;;;;;;;;;;;;;;;;10459551;28;20380;-63
2022/12/07 09:10:04;;;;;;;;;;;;;;;;;;10460147;28;19931;-63
2022/12/07 09:15:07;;;;;;;;;;;;;;;;;;10477639;28;19928;-63
2022/12/07 09:20:09;;;;;;;;;;;;;;;;;;10477752;28;19933;-63
2022/12/07 09:25:11;;;;;;;;;;;;;;;;;;10483174;28;19931;-64
2022/12/07 09:30:13;;;;;;;;;;;;;;;;;;10453367;28;19972;-63
2022/12/07 09:35:15;;;;;;;;;;;;;;;;;;10458602;28;19971;-63
2022/12/07 09:40:18;;;;;;;;;;;;;;;;;;10459792;28;20045;-63
2022/12/07 09:45:20;;;;;;;;;;;;;;;;;;10472404;28;20276;-63
2022/12/07 09:50:22;;;;;;;;;;;;;;;;;;10476260;28;19924;-63
2022/12/07 09:55:24;;;;;;;;;;;;;;;;;;10477905;28;20295;-63
2022/12/07 10:00:28;;;;;;;;;;;;;;;;;;10473131;28;19970;-63
2022/12/07 10:05:30;;;;;;;;;;;;;;;;;;10484212;28;19986;-63
2022/12/07 10:10:32;;;;;;;;;;;;;;;;;;10476354;28;19970;-63
2022/12/07 10:15:39;;;;;;;;;;;;;;;;;;10450990;28;19970;-63
2022/12/07 10:20:41;;;;;;;;;;;;;;;;;;10497933;28;20019;-63
2022/12/07 10:25:43;;;;;;;;;;;;;;;;;;10497571;28;19951;-63
2022/12/07 10:30:45;;;;;;;;;;;;;;;;;;10459862;28;19986;-63
2022/12/07 10:35:47;;;;;;;;;;;;;;;;;;10455390;28;20433;-63
2022/12/07 10:40:49;;;;;;;;;;;;;;;;;;10485586;28;19924;-64
2022/12/07 10:45:51;;;;;;;;;;;;;;;;;;10472157;28;19994;-64
2022/12/07 10:51:05;;;;;;;;;;;;;;;;;;10464911;28;19928;-64
2022/12/07 10:56:07;;;;;;;;;;;;;;;;;;10495885;28;20445;-63
2022/12/07 11:01:09;;;;;;;;;;;;;;;;;;10478974;28;19931;-64
2022/12/07 11:06:11;;;;;;;;;;;;;;;;;;10456107;28;19925;-63
2022/12/07 11:11:13;;;;;;;;;;;;;;;;;;10456429;28;19925;-64
2022/12/07 11:16:15;;;;;;;;;;;;;;;;;;10456945;28;19925;-64
2022/12/07 11:21:17;;;;;;;;;;;;;;;;;;10456829;28;20319;-64
2022/12/07 11:26:19;;;;;;;;;;;;;;;;;;10456667;28;19958;-64
2022/12/07 11:31:21;;;;;;;;;;;;;;;;;;10460771;28;20376;-64
2022/12/07 11:36:29;;;;;;;;;;;;;;;;;;10447652;28;19928;-64
2022/12/07 11:41:31;;;;;;;;;;;;;;;;;;10464290;28;19975;-64
2022/12/07 11:46:33;;;;;;;;;;;;;;;;;;10463996;28;19928;-64
2022/12/07 11:51:36;;;;;;;;;;;;;;;;;;10463088;28;19925;-64
2022/12/07 11:56:38;;;;;;;;;;;;;;;;;;10463062;28;19925;-64
2022/12/07 12:01:40;;;;;;;;;;;;;;;;;;10463358;28;19935;-64
2022/12/07 12:06:42;;;;;;;;;;;;;;;;;;10508998;22;20037;-77
2022/12/07 12:11:44;;;;;;;;;;;;;;;;;;10503480;28;20425;-76
2022/12/07 12:16:46;;;;;;;;;;;;;;;;;;10503639;28;20371;-77
2022/12/07 12:21:48;;;;;;;;;;;;;;;;;;10504147;28;19932;-76
2022/12/07 12:26:53;;;;;;;;;;;;;;;;;;10503319;28;20370;-76
2022/12/07 12:31:55;;;;;;;;;;;;;;;;;;10503017;28;20413;-76
2022/12/07 12:36:57;;;;;;;;;;;;;;;;;;10503592;28;19932;-77
2022/12/07 12:47:01;;;;;;;;;;;;;;;;;;10502949;28;19928;-76
2022/12/07 12:52:03;;;;;;;;;;;;;;;;;;10501785;28;19924;-76
2022/12/07 12:57:06;;;;;;;;;;;;;;;;;;10502723;28;19924;-77
2022/12/07 13:02:08;;;;;;;;;;;;;;;;;;10502550;28;19931;-77
2022/12/07 13:07:10;;;;;;;;;;;;;;;;;;10498731;28;20380;-77
2022/12/07 13:12:12;;;;;;;;;;;;;;;;;;10502117;28;19924;-76
2022/12/07 13:17:14;;;;;;;;;;;;;;;;;;10501861;28;19970;-76
2022/12/07 13:22:16;;;;;;;;;;;;;;;;;;10501103;28;19924;-77
2022/12/07 13:27:18;;;;;;;;;;;;;;;;;;10501334;28;19931;-72
2022/12/07 13:32:20;;;;;;;;;;;;;;;;;;10501251;28;19924;-73
2022/12/07 13:37:22;;;;;;;;;;;;;;;;;;10501004;28;19924;-72
2022/12/07 13:42:24;;;;;;;;;;;;;;;;;;10500284;28;20337;-72
2022/12/07 13:47:26;;;;;;;;;;;;;;;;;;10499914;28;20318;-73
2022/12/07 13:52:28;;;;;;;;;;;;;;;;;;10482194;28;20045;-72
2022/12/07 13:57:30;;;;;;;;;;;;;;;;;;10499680;28;20380;-73
2022/12/07 14:02:32;;;;;;;;;;;;;;;;;;10500002;28;19924;-72
2022/12/07 14:07:36;;;;;;;;;;;;;;;;;;10499926;28;19942;-73
2022/12/07 14:12:38;;;;;;;;;;;;;;;;;;10499843;28;19925;-72
2022/12/07 14:17:40;;;;;;;;;;;;;;;;;;10495907;28;19933;-72
2022/12/07 14:22:42;;;;;;;;;;;;;;;;;;10479200;28;19925;-73
2022/12/07 14:27:44;;;;;;;;;;;;;;;;;;10456538;28;20330;-73
2022/12/07 14:32:48;;;;;;;;;;;;;;;;;;10455173;28;19925;-73
2022/12/07 14:37:50;;;;;;;;;;;;;;;;;;10457048;28;19931;-73
2022/12/07 14:42:52;;;;;;;;;;;;;;;;;;10456885;28;19975;-73
2022/12/07 14:47:54;;;;;;;;;;;;;;;;;;10484753;28;19929;-73
2022/12/07 14:53:16;;;;;;;;;;;;;;;;;;10497250;28;19978;-72
2022/12/07 14:58:25;;;;;;;;;;;;;;;;;;10471235;28;19947;-73
2022/12/07 15:03:27;;;;;;;;;;;;;;;;;;10485209;28;19928;-72
2022/12/07 15:08:29;;;;;;;;;;;;;;;;;;10505460;28;20027;-73
2022/12/07 15:18:52;;;;;;;;;;;;;;;;;;10505065;28;19931;-72
2022/12/07 15:24:14;;;;;;;;;;;;;;;;;;10504504;28;19931;-72
2022/12/07 15:29:16;;;;;;;;;;;;;;;;;;10505375;28;19925;-73
2022/12/07 15:34:23;;;;;;;;;;;;;;;;;;10505995;28;19925;-73
2022/12/07 15:39:25;;;;;;;;;;;;;;;;;;10505732;28;19931;-72
2022/12/07 15:49:48;;;;;;;;;;;;;;;;;;10505327;28;19925;-72
2022/12/07 15:54:50;;;;;;;;;;;;;;;;;;10505233;28;19935;-72
2022/12/07 15:59:53;;;;;;;;;;;;;;;;;;10504395;28;19948;-72
2022/12/07 16:04:55;;;;;;;;;;;;;;;;;;10504391;28;19924;-73
2022/12/07 16:09:57;;;;;;;;;;;;;;;;;;10503971;28;19924;-72
2022/12/07 16:14:59;;;;;;;;;;;;;;;;;;10503193;28;20383;-72
2022/12/07 16:20:02;;;;;;;;;;;;;;;;;;10503053;28;19925;-72
2022/12/07 16:25:04;;;;;;;;;;;;;;;;;;10503275;28;19929;-72
2022/12/07 16:30:06;;;;;;;;;;;;;;;;;;10503820;28;19960;-72
2022/12/07 16:35:08;;;;;;;;;;;;;;;;;;10501018;28;19947;-71
2022/12/07 16:40:10;;;;;;;;;;;;;;;;;;10502627;28;19928;-73
2022/12/07 16:45:13;;;;;;;;;;;;;;;;;;10500343;28;20295;-72
2022/12/07 16:50:20;;;;;;;;;;;;;;;;;;10503079;28;19925;-72
2022/12/07 16:55:22;;;;;;;;;;;;;;;;;;10501790;28;19925;-72
2022/12/07 17:00:24;;;;;;;;;;;;;;;;;;10502595;28;19924;-72
2022/12/07 17:05:27;;;;;;;;;;;;;;;;;;10501604;28;20414;-73
2022/12/07 17:10:29;;;;;;;;;;;;;;;;;;10500718;28;20376;-72
2022/12/07 17:15:32;;;;;;;;;;;;;;;;;;10501295;28;20291;-72
2022/12/07 17:20:34;;;;;;;;;;;;;;;;;;10483356;28;19925;-72
2022/12/07 17:25:36;;;;;;;;;;;;;;;;;;10499206;28;20334;-72
2022/12/07 17:30:38;;;;;;;;;;;;;;;;;;10481219;28;19978;-72
2022/12/07 17:35:40;;;;;;;;;;;;;;;;;;10501121;28;19978;-72
2022/12/07 17:40:42;;;;;;;;;;;;;;;;;;10501015;28;19955;-72
2022/12/07 17:45:44;;;;;;;;;;;;;;;;;;10499453;28;19924;-72
2022/12/07 17:56:07;;;;;;;;;;;;;;;;;;10499640;28;19931;-72
2022/12/07 18:01:29;;;;;;;;;;;;;;;;;;10498463;28;19924;-72
2022/12/07 18:06:35;;;;;;;;;;;;;;;;;;10497285;28;19932;-72
2022/12/07 18:11:37;;;;;;;;;;;;;;;;;;10497849;28;19978;-72
2022/12/07 18:16:39;;;;;;;;;;;;;;;;;;10498635;28;19932;-72
2022/12/07 18:21:41;;;;;;;;;;;;;;;;;;10497006;28;19928;-73
2022/12/07 18:26:44;;;;;;;;;;;;;;;;;;10499446;28;19970;-72
2022/12/07 18:31:46;;;;;;;;;;;;;;;;;;10499229;28;19928;-72
2022/12/07 18:36:49;;;;;;;;;;;;;;;;;;10497517;28;19932;-72
2022/12/07 18:41:51;;;;;;;;;;;;;;;;;;10498855;28;19931;-72
2022/12/07 18:46:53;;;;;;;;;;;;;;;;;;10498984;28;19931;-72
2022/12/07 18:51:55;;;;;;;;;;;;;;;;;;10497194;28;19943;-72
2022/12/07 18:56:57;;;;;;;;;;;;;;;;;;10496943;28;19924;-72
2022/12/07 19:01:59;;;;;;;;;;;;;;;;;;10498660;28;19929;-71
2022/12/07 19:07:01;;;;;;;;;;;;;;;;;;10497839;28;20375;-72
2022/12/07 19:12:04;;;;;;;;;;;;;;;;;;10497359;28;19924;-72
2022/12/07 19:17:06;;;;;;;;;;;;;;;;;;10495210;28;20024;-72
2022/12/07 19:22:08;;;;;;;;;;;;;;;;;;10496620;28;20299;-72
2022/12/07 19:27:10;;;;;;;;;;;;;;;;;;10498174;28;19928;-72
2022/12/07 19:32:12;;;;;;;;;;;;;;;;;;10497057;28;21150;-72
2022/12/07 19:37:14;;;;;;;;;;;;;;;;;;10497377;28;19928;-73
2022/12/07 19:42:17;;;;;;;;;;;;;;;;;;10497920;28;19925;-72
2022/12/07 19:47:19;;;;;;;;;;;;;;;;;;10496122;28;19933;-72
2022/12/07 19:52:21;;;;;;;;;;;;;;;;;;10499953;28;20291;-72
2022/12/07 19:57:23;;;;;;;;;;;;;;;;;;10504404;28;19978;-72
2022/12/07 20:02:25;;;;;;;;;;;;;;;;;;10503885;28;19970;-72
2022/12/07 20:07:27;;;;;;;;;;;;;;;;;;10503175;28;19951;-73
2022/12/07 20:17:50;;;;;;;;;;;;;;;;;;10503752;28;20359;-72
2022/12/07 20:22:52;;;;;;;;;;;;;;;;;;10504207;28;19928;-72
2022/12/07 20:27:54;;;;;;;;;;;;;;;;;;10502286;28;19925;-72
2022/12/07 20:32:56;;;;;;;;;;;;;;;;;;10501589;28;20384;-72
2022/12/07 20:37:58;;;;;;;;;;;;;;;;;;10502945;28;20330;-72
2022/12/07 20:43:00;;;;;;;;;;;;;;;;;;10503429;28;19932;-72
2022/12/07 20:48:02;;;;;;;;;;;;;;;;;;10501522;28;20394;-73
2022/12/07 20:53:04;;;;;;;;;;;;;;;;;;10502476;28;19924;-72
2022/12/07 20:58:06;;;;;;;;;;;;;;;;;;10485117;28;19970;-72
2022/12/07 21:03:09;;;;;;;;;;;;;;;;;;10501132;28;19925;-72
2022/12/07 21:08:11;;;;;;;;;;;;;;;;;;10501101;28;20417;-72
2022/12/07 21:13:13;;;;;;;;;;;;;;;;;;10501033;28;19970;-72
2022/12/07 21:18:17;;;;;;;;;;;;;;;;;;10501294;28;20435;-73
2022/12/07 21:23:19;;;;;;;;;;;;;;;;;;10501192;28;20410;-72
2022/12/07 21:28:21;;;;;;;;;;;;;;;;;;10499480;28;19924;-72
2022/12/07 21:33:23;;;;;;;;;;;;;;;;;;10499760;28;19924;-72
2022/12/07 21:38:26;;;;;;;;;;;;;;;;;;10501169;28;19925;-72
2022/12/07 21:43:28;;;;;;;;;;;;;;;;;;10499883;28;19925;-73
2022/12/07 21:48:30;;;;;;;;;;;;;;;;;;10500028;28;19951;-72
2022/12/07 21:53:32;;;;;;;;;;;;;;;;;;10498853;28;19936;-72
2022/12/07 21:58:34;;;;;;;;;;;;;;;;;;10500328;28;19924;-72
2022/12/07 22:03:36;;;;;;;;;;;;;;;;;;10499181;28;19931;-72
2022/12/07 22:08:38;;;;;;;;;;;;;;;;;;10498339;28;19978;-72
2022/12/07 22:19:04;;;;;;;;;;;;;;;;;;10499673;28;19925;-72
2022/12/07 22:24:06;;;;;;;;;;;;;;;;;;10499554;28;19929;-72
2022/12/07 22:29:08;;;;;;;;;;;;;;;;;;10498682;28;19928;-72
2022/12/07 22:34:10;;;;;;;;;;;;;;;;;;10497977;28;19929;-72
2022/12/07 22:39:12;;;;;;;;;;;;;;;;;;10499152;28;19928;-72
2022/12/07 22:44:14;;;;;;;;;;;;;;;;;;10499048;28;19971;-72
2022/12/07 22:49:16;;;;;;;;;;;;;;;;;;10498188;28;20033;-72
2022/12/07 22:54:18;;;;;;;;;;;;;;;;;;10498797;28;19946;-72
2022/12/07 22:59:20;;;;;;;;;;;;;;;;;;10497230;28;19931;-72
2022/12/07 23:04:22;;;;;;;;;;;;;;;;;;10497200;28;20446;-73
2022/12/07 23:09:24;;;;;;;;;;;;;;;;;;10498441;28;19971;-72
2022/12/07 23:14:26;;;;;;;;;;;;;;;;;;10498147;28;19925;-73
2022/12/07 23:19:28;;;;;;;;;;;;;;;;;;10496997;28;20011;-72
2022/12/07 23:24:30;;;;;;;;;;;;;;;;;;10497442;28;19970;-72
2022/12/07 23:29:33;;;;;;;;;;;;;;;;;;10505560;28;19928;-73
2022/12/07 23:34:35;;;;;;;;;;;;;;;;;;10504498;28;19991;-72
2022/12/07 23:39:37;;;;;;;;;;;;;;;;;;10505839;28;19928;-72
2022/12/07 23:44:39;;;;;;;;;;;;;;;;;;10505059;28;19928;-72
2022/12/07 23:49:41;;;;;;;;;;;;;;;;;;10504108;28;20303;-72
2022/12/07 23:54:43;;;;;;;;;;;;;;;;;;10505281;28;19974;-72
2022/12/07 23:59:45;;;;;;;;;;;;;;;;;;10504462;28;19924;-72
